createdAt,value
2023-05-17T00:02:00.854Z,101219.00
2023-05-17T00:04:30.976Z,101222.00
2023-05-17T00:07:01.122Z,101213.00
2023-05-17T00:09:34.060Z,101217.00
2023-05-17T00:12:04.179Z,101214.00
2023-05-17T00:14:34.372Z,101213.00
2023-05-17T00:17:04.461Z,101209.00
2023-05-17T00:19:34.635Z,101213.00
2023-05-17T00:22:04.834Z,101211.00
2023-05-17T00:24:37.578Z,101213.00
2023-05-17T00:27:08.616Z,101211.00
2023-05-17T00:29:38.719Z,101213.00
2023-05-17T00:32:10.279Z,101211.00
2023-05-17T00:34:40.390Z,101220.00
2023-05-17T00:37:10.493Z,101214.00
2023-05-17T00:39:43.214Z,101214.00
2023-05-17T00:42:14.270Z,101204.00
2023-05-17T00:44:44.364Z,101220.00
2023-05-17T00:47:14.701Z,101221.00
2023-05-17T00:49:45.867Z,101217.00
2023-05-17T00:52:16.483Z,101214.00
2023-05-17T00:54:49.971Z,101216.00
2023-05-17T00:57:20.215Z,101216.00
2023-05-17T00:59:50.783Z,101211.00
2023-05-17T01:02:20.915Z,101224.00
2023-05-17T01:04:51.900Z,101214.00
2023-05-17T01:07:22.059Z,101216.00
2023-05-17T01:09:55.053Z,101223.00
2023-05-17T01:12:37.956Z,101217.00
2023-05-17T01:15:17.291Z,101221.00
2023-05-17T01:17:58.631Z,101227.00
2023-05-17T01:20:33.619Z,101222.00
2023-05-17T01:23:24.060Z,101222.00
2023-05-17T01:26:09.928Z,101231.00
2023-05-17T01:28:44.070Z,101224.00
2023-05-17T01:31:14.974Z,101228.00
2023-05-17T01:33:45.255Z,101241.00
2023-05-17T01:36:15.519Z,101236.00
2023-05-17T01:38:45.593Z,101235.00
2023-05-17T01:41:28.269Z,101239.00
2023-05-17T01:44:10.420Z,101239.00
2023-05-17T01:46:46.281Z,101252.00
2023-05-17T01:49:24.989Z,101240.00
2023-05-17T01:52:01.164Z,101246.00
2023-05-17T01:54:46.346Z,101241.00
2023-05-17T01:57:17.814Z,101235.00
2023-05-17T01:59:52.910Z,101234.00
2023-05-17T02:02:23.047Z,101241.00
2023-05-17T02:04:53.367Z,101248.00
2023-05-17T02:07:23.463Z,101248.00
2023-05-17T02:09:53.893Z,101238.00
2023-05-17T02:12:23.968Z,101244.00
2023-05-17T02:14:56.647Z,101247.00
2023-05-17T02:17:27.226Z,101243.00
2023-05-17T02:19:57.352Z,101243.00
2023-05-17T02:22:27.450Z,101247.00
2023-05-17T02:24:57.514Z,101244.00
2023-05-17T02:27:27.609Z,101245.00
2023-05-17T02:30:02.277Z,101242.00
2023-05-17T02:32:32.357Z,101235.00
2023-05-17T02:35:02.842Z,101239.00
2023-05-17T02:37:32.997Z,101234.00
2023-05-17T02:40:03.121Z,101239.00
2023-05-17T02:42:33.195Z,101232.00
2023-05-17T02:45:06.855Z,101238.00
2023-05-17T02:47:37.061Z,101230.00
2023-05-17T02:50:08.441Z,101237.00
2023-05-17T02:52:38.636Z,101238.00
2023-05-17T02:55:09.969Z,101236.00
2023-05-17T02:57:40.065Z,101229.00
2023-05-17T03:00:14.296Z,101234.00
2023-05-17T03:02:44.433Z,101244.00
2023-05-17T03:05:14.677Z,101233.00
2023-05-17T03:07:44.766Z,101249.00
2023-05-17T03:10:15.068Z,101246.00
2023-05-17T03:12:45.196Z,101255.00
2023-05-17T03:15:18.387Z,101257.00
2023-05-17T03:17:48.575Z,101258.00
2023-05-17T03:20:19.244Z,101249.00
2023-05-17T03:22:49.332Z,101258.00
2023-05-17T03:25:19.850Z,101253.00
2023-05-17T03:27:49.951Z,101266.00
2023-05-17T03:30:22.852Z,101262.00
2023-05-17T03:32:53.063Z,101264.00
2023-05-17T03:35:23.493Z,101263.00
2023-05-17T03:37:53.606Z,101266.00
2023-05-17T03:40:23.757Z,101271.00
2023-05-17T03:42:54.419Z,101286.00
2023-05-17T03:45:27.244Z,101285.00
2023-05-17T03:47:57.752Z,101289.00
2023-05-17T03:50:28.159Z,101291.00
2023-05-17T03:52:58.268Z,101290.00
2023-05-17T03:55:28.473Z,101300.00
2023-05-17T03:57:58.825Z,101293.00
2023-05-17T04:00:31.554Z,101293.00
2023-05-17T04:03:01.720Z,101299.00
2023-05-17T04:05:32.982Z,101296.00
2023-05-17T04:08:03.093Z,101304.00
2023-05-17T04:10:33.724Z,101300.00
2023-05-17T04:13:03.800Z,101306.00
2023-05-17T04:15:36.465Z,101312.00
2023-05-17T04:18:06.981Z,101306.00
2023-05-17T04:20:37.075Z,101300.00
2023-05-17T04:23:07.400Z,101309.00
2023-05-17T04:25:37.923Z,101308.00
2023-05-17T04:28:08.177Z,101318.00
2023-05-17T04:30:44.996Z,101308.00
2023-05-17T04:33:15.159Z,101314.00
2023-05-17T04:35:45.921Z,101315.00
2023-05-17T04:38:16.522Z,101330.00
2023-05-17T04:40:46.596Z,101324.00
2023-05-17T04:43:16.691Z,101341.00
2023-05-17T04:45:50.561Z,101347.00
2023-05-17T04:48:20.983Z,101345.00
2023-05-17T04:50:51.207Z,101360.00
2023-05-17T04:53:21.737Z,101368.00
2023-05-17T04:55:52.988Z,101364.00
2023-05-17T04:58:24.400Z,101379.00
2023-05-17T05:00:57.086Z,101384.00
2023-05-17T05:03:27.576Z,101386.00
2023-05-17T05:06:00.211Z,101386.00
2023-05-17T05:08:31.705Z,101385.00
2023-05-17T05:11:01.797Z,101399.00
2023-05-17T05:13:31.948Z,101391.00
2023-05-17T05:16:04.693Z,101395.00
2023-05-17T05:18:34.905Z,101393.00
2023-05-17T05:21:05.032Z,101395.00
2023-05-17T05:23:35.139Z,101397.00
2023-05-17T05:26:05.264Z,101395.00
2023-05-17T05:28:35.421Z,101389.00
2023-05-17T05:31:08.326Z,101388.00
2023-05-17T05:33:38.570Z,101377.00
2023-05-17T05:36:09.769Z,101395.00
2023-05-17T05:38:39.875Z,101408.00
2023-05-17T05:41:09.929Z,101402.00
2023-05-17T05:43:40.067Z,101411.00
2023-05-17T05:46:12.760Z,101404.00
2023-05-17T05:48:43.710Z,101415.00
2023-05-17T05:51:14.003Z,101419.00
2023-05-17T05:53:44.142Z,101414.00
2023-05-17T05:56:14.691Z,101428.00
2023-05-17T05:58:47.808Z,101433.00
2023-05-17T06:01:20.478Z,101415.00
2023-05-17T06:03:50.728Z,101432.00
2023-05-17T06:06:21.011Z,101440.00
2023-05-17T06:08:51.115Z,101440.00
2023-05-17T06:11:21.822Z,101442.00
2023-05-17T06:13:51.884Z,101447.00
2023-05-17T06:16:24.607Z,101443.00
2023-05-17T06:18:54.767Z,101429.00
2023-05-17T06:21:25.669Z,101439.00
2023-05-17T06:23:56.361Z,101431.00
2023-05-17T06:26:26.419Z,101426.00
2023-05-17T06:28:56.514Z,101443.00
2023-05-17T06:31:29.298Z,101435.00
2023-05-17T06:33:59.393Z,101445.00
2023-05-17T06:36:30.674Z,101441.00
2023-05-17T06:39:02.508Z,101446.00
2023-05-17T06:41:32.681Z,101455.00
2023-05-17T06:44:02.744Z,101466.00
2023-05-17T06:46:35.489Z,101453.00
2023-05-17T06:49:05.887Z,101451.00
2023-05-17T06:51:36.192Z,101469.00
2023-05-17T06:54:06.500Z,101462.00
2023-05-17T06:56:36.643Z,101465.00
2023-05-17T06:59:06.721Z,101465.00
2023-05-17T07:01:39.922Z,101465.00
2023-05-17T07:04:09.977Z,101469.00
2023-05-17T07:06:40.112Z,101472.00
2023-05-17T07:09:10.445Z,101476.00
2023-05-17T07:11:40.550Z,101469.00
2023-05-17T07:14:10.629Z,101487.00
2023-05-17T07:16:43.864Z,101473.00
2023-05-17T07:19:14.024Z,101473.00
2023-05-17T07:21:44.598Z,101485.00
2023-05-17T07:24:14.698Z,101492.00
2023-05-17T07:26:45.487Z,101485.00
2023-05-17T07:29:15.694Z,101490.00
2023-05-17T07:31:48.364Z,101495.00
2023-05-17T07:34:18.462Z,101507.00
2023-05-17T07:36:48.576Z,101510.00
2023-05-17T07:39:18.641Z,101511.00
2023-05-17T07:41:48.768Z,101507.00
2023-05-17T07:44:18.889Z,101517.00
2023-05-17T07:46:51.736Z,101519.00
2023-05-17T07:49:21.923Z,101519.00
2023-05-17T07:51:52.331Z,101509.00
2023-05-17T07:54:27.485Z,101523.00
2023-05-17T07:56:58.134Z,101537.00
2023-05-17T07:59:28.461Z,101536.00
2023-05-17T08:02:01.169Z,101544.00
2023-05-17T08:04:31.319Z,101544.00
2023-05-17T08:07:01.454Z,101536.00
2023-05-17T08:09:31.562Z,101536.00
2023-05-17T08:12:02.200Z,101545.00
2023-05-17T08:14:32.418Z,101546.00
2023-05-17T08:17:05.116Z,101532.00
2023-05-17T08:19:35.351Z,101545.00
2023-05-17T08:22:05.444Z,101553.00
2023-05-17T08:24:36.192Z,101544.00
2023-05-17T08:27:06.787Z,101552.00
2023-05-17T08:29:40.541Z,101544.00
2023-05-17T08:32:13.536Z,101547.00
2023-05-17T08:34:43.590Z,101559.00
2023-05-17T08:37:13.730Z,101565.00
2023-05-17T08:39:43.938Z,101571.00
2023-05-17T08:42:14.078Z,101556.00
2023-05-17T08:44:44.407Z,101562.00
2023-05-17T08:47:26.137Z,101560.00
2023-05-17T08:50:01.158Z,101567.00
2023-05-17T08:52:34.217Z,101557.00
2023-05-17T08:55:06.388Z,101566.00
2023-05-17T08:57:39.464Z,101571.00
2023-05-17T09:00:16.353Z,101563.00
2023-05-17T09:02:49.920Z,101562.00
2023-05-17T09:05:20.577Z,101567.00
2023-05-17T09:07:53.151Z,101559.00
2023-05-17T09:10:23.783Z,101556.00
2023-05-17T09:12:55.323Z,101553.00
2023-05-17T09:15:27.836Z,101565.00
2023-05-17T09:18:01.095Z,101557.00
2023-05-17T09:20:34.590Z,101561.00
2023-05-17T09:23:05.000Z,101559.00
2023-05-17T09:25:35.278Z,101552.00
2023-05-17T09:28:07.862Z,101564.00
2023-05-17T09:30:40.599Z,101562.00
2023-05-17T09:33:17.705Z,101569.00
2023-05-17T09:35:49.039Z,101570.00
2023-05-17T09:38:19.117Z,101573.00
2023-05-17T09:40:51.077Z,101567.00
2023-05-17T09:43:27.380Z,101567.00
2023-05-17T09:46:00.926Z,101574.00
2023-05-17T09:48:33.675Z,101573.00
2023-05-17T09:51:04.531Z,101574.00
2023-05-17T09:53:40.093Z,101569.00
2023-05-17T09:56:12.451Z,101574.00
2023-05-17T09:58:42.592Z,101569.00
2023-05-17T10:01:13.497Z,101570.00
2023-05-17T10:03:46.801Z,101571.00
2023-05-17T10:06:33.205Z,101579.00
2023-05-17T10:09:14.526Z,101579.00
2023-05-17T10:11:49.610Z,101581.00
2023-05-17T10:14:23.338Z,101583.00
2023-05-17T10:16:54.607Z,101581.00
2023-05-17T10:19:30.952Z,101583.00
2023-05-17T10:22:18.270Z,101581.00
2023-05-17T10:24:53.839Z,101579.00
2023-05-17T10:27:24.553Z,101586.00
2023-05-17T10:29:57.299Z,101592.00
2023-05-17T10:32:30.189Z,101595.00
2023-05-17T10:35:11.537Z,101593.00
2023-05-17T10:37:44.114Z,101590.00
2023-05-17T10:40:17.748Z,101600.00
2023-05-17T10:42:54.679Z,101583.00
2023-05-17T10:45:28.190Z,101601.00
2023-05-17T10:48:00.907Z,101594.00
2023-05-17T10:50:34.374Z,101598.00
2023-05-17T10:53:05.918Z,101593.00
2023-05-17T10:55:43.284Z,101604.00
2023-05-17T10:58:21.731Z,101600.00
2023-05-17T11:00:55.757Z,101599.00
2023-05-17T11:03:34.227Z,101593.00
2023-05-17T11:06:25.370Z,101591.00
2023-05-17T11:09:18.695Z,101589.00
2023-05-17T11:12:08.152Z,101589.00
2023-05-17T11:14:51.564Z,101598.00
2023-05-17T11:17:24.318Z,101604.00
2023-05-17T11:20:27.701Z,101606.00
2023-05-17T11:23:04.383Z,101605.00
2023-05-17T11:25:36.631Z,101602.00
2023-05-17T11:28:12.408Z,101603.00
2023-05-17T11:30:51.837Z,101586.00
2023-05-17T11:33:32.941Z,101594.00
2023-05-17T11:36:09.040Z,101599.00
2023-05-17T11:38:41.813Z,101601.00
2023-05-17T11:41:26.466Z,101605.00
2023-05-17T11:43:57.691Z,101593.00
2023-05-17T11:46:27.889Z,101594.00
2023-05-17T11:48:58.715Z,101588.00
2023-05-17T11:51:29.366Z,101579.00
2023-05-17T11:54:03.737Z,101593.00
2023-05-17T11:56:43.465Z,101596.00
2023-05-17T11:59:14.083Z,101593.00
2023-05-17T12:01:48.998Z,101605.00
2023-05-17T12:04:27.902Z,101599.00
2023-05-17T12:06:58.851Z,101603.00
2023-05-17T12:09:31.750Z,101597.00
2023-05-17T12:12:05.565Z,101597.00
2023-05-17T12:14:35.692Z,101594.00
2023-05-17T12:17:10.341Z,101592.00
2023-05-17T12:19:40.504Z,101590.00
2023-05-17T12:22:13.018Z,101592.00
2023-05-17T12:24:46.703Z,101602.00
2023-05-17T12:27:17.014Z,101588.00
2023-05-17T12:29:47.096Z,101596.00
2023-05-17T12:32:17.325Z,101599.00
2023-05-17T12:34:48.159Z,101587.00
2023-05-17T12:37:18.577Z,101591.00
2023-05-17T12:39:51.635Z,101586.00
2023-05-17T12:42:21.860Z,101596.00
2023-05-17T12:44:51.966Z,101591.00
2023-05-17T12:47:22.091Z,101593.00
2023-05-17T12:49:57.345Z,101597.00
2023-05-17T12:52:27.457Z,101593.00
2023-05-17T12:55:02.370Z,101596.00
2023-05-17T12:57:33.109Z,101595.00
2023-05-17T13:00:09.970Z,101586.00
2023-05-17T13:02:40.885Z,101579.00
2023-05-17T13:05:21.898Z,101593.00
2023-05-17T13:07:52.136Z,101586.00
2023-05-17T13:10:30.830Z,101588.00
2023-05-17T13:13:03.236Z,101596.00
2023-05-17T13:15:34.415Z,101587.00
2023-05-17T13:18:16.752Z,101589.00
2023-05-17T13:20:47.189Z,101605.00
2023-05-17T13:23:18.864Z,101603.00
2023-05-17T13:25:51.553Z,101603.00
2023-05-17T13:28:21.627Z,101597.00
2023-05-17T13:30:52.761Z,101597.00
2023-05-17T13:33:23.821Z,101598.00
2023-05-17T13:35:54.046Z,101601.00
2023-05-17T13:38:24.150Z,101595.00
2023-05-17T13:40:57.067Z,101606.00
2023-05-17T13:43:27.186Z,101605.00
2023-05-17T13:45:59.159Z,101625.00
2023-05-17T13:48:29.330Z,101619.00
2023-05-17T13:50:59.937Z,101608.00
2023-05-17T13:53:30.223Z,101607.00
2023-05-17T13:56:03.054Z,101617.00
2023-05-17T13:58:33.336Z,101597.00
2023-05-17T14:01:03.639Z,101630.00
2023-05-17T14:03:33.896Z,101618.00
2023-05-17T14:06:04.196Z,101629.00
2023-05-17T14:08:34.375Z,101620.00
2023-05-17T14:11:07.142Z,101631.00
2023-05-17T14:13:37.558Z,101624.00
2023-05-17T14:16:08.781Z,101626.00
2023-05-17T14:18:39.033Z,101626.00
2023-05-17T14:21:09.252Z,101637.00
2023-05-17T14:23:39.332Z,101637.00
2023-05-17T14:26:12.062Z,101636.00
2023-05-17T14:28:42.253Z,101633.00
2023-05-17T14:31:13.302Z,101635.00
2023-05-17T14:33:43.441Z,101645.00
2023-05-17T14:36:14.334Z,101644.00
2023-05-17T14:38:44.560Z,101644.00
2023-05-17T14:41:18.692Z,101647.00
2023-05-17T14:43:48.813Z,101649.00
2023-05-17T14:46:19.803Z,101652.00
2023-05-17T14:48:52.366Z,101669.00
2023-05-17T14:51:22.911Z,101674.00
2023-05-17T14:53:52.980Z,101666.00
2023-05-17T14:56:25.753Z,101674.00
2023-05-17T14:58:55.833Z,101684.00
2023-05-17T15:01:25.943Z,101687.00
2023-05-17T15:03:56.101Z,101684.00
2023-05-17T15:06:26.799Z,101676.00
2023-05-17T15:08:57.679Z,101686.00
2023-05-17T15:11:30.414Z,101689.00
2023-05-17T15:14:00.566Z,101683.00
2023-05-17T15:16:31.050Z,101687.00
2023-05-17T15:19:01.337Z,101681.00
2023-05-17T15:21:31.706Z,101688.00
2023-05-17T15:24:01.814Z,101684.00
2023-05-17T15:26:34.510Z,101695.00
2023-05-17T15:29:04.658Z,101699.00
2023-05-17T15:31:34.852Z,101708.00
2023-05-17T15:34:05.341Z,101701.00
2023-05-17T15:36:36.659Z,101704.00
2023-05-17T15:39:06.936Z,101701.00
2023-05-17T15:41:40.669Z,101723.00
2023-05-17T15:44:11.351Z,101716.00
2023-05-17T15:46:41.517Z,101701.00
2023-05-17T15:49:11.820Z,101705.00
2023-05-17T15:51:41.912Z,101707.00
2023-05-17T15:54:12.102Z,101701.00
2023-05-17T15:56:44.832Z,101701.00
2023-05-17T15:59:15.842Z,101702.00
2023-05-17T16:01:46.593Z,101696.00
2023-05-17T16:04:17.111Z,101708.00
2023-05-17T16:06:47.334Z,101707.00
2023-05-17T16:09:17.531Z,101714.00
2023-05-17T16:11:50.401Z,101713.00
2023-05-17T16:14:20.637Z,101710.00
2023-05-17T16:16:50.883Z,101722.00
2023-05-17T16:19:21.514Z,101727.00
2023-05-17T16:21:51.689Z,101728.00
2023-05-17T16:24:21.766Z,101732.00
2023-05-17T16:26:54.548Z,101736.00
2023-05-17T16:29:24.623Z,101745.00
2023-05-17T16:31:55.574Z,101738.00
2023-05-17T16:34:27.538Z,101749.00
2023-05-17T16:36:57.754Z,101741.00
2023-05-17T16:39:28.930Z,101745.00
2023-05-17T16:42:01.649Z,101750.00
2023-05-17T16:44:31.783Z,101744.00
2023-05-17T16:47:02.248Z,101754.00
2023-05-17T16:49:32.858Z,101740.00
2023-05-17T16:52:02.969Z,101751.00
2023-05-17T16:54:33.865Z,101746.00
2023-05-17T16:57:08.543Z,101740.00
2023-05-17T16:59:38.739Z,101748.00
2023-05-17T17:02:09.208Z,101756.00
2023-05-17T17:04:39.496Z,101746.00
2023-05-17T17:07:09.587Z,101751.00
2023-05-17T17:09:39.777Z,101756.00
2023-05-17T17:12:23.448Z,101752.00
2023-05-17T17:14:55.031Z,101757.00
2023-05-17T17:17:25.146Z,101752.00
2023-05-17T17:19:55.234Z,101747.00
2023-05-17T17:22:25.613Z,101749.00
2023-05-17T17:24:55.702Z,101747.00
2023-05-17T17:27:28.417Z,101747.00
2023-05-17T17:29:58.544Z,101753.00
2023-05-17T17:32:29.053Z,101742.00
2023-05-17T17:34:59.262Z,101746.00
2023-05-17T17:37:29.393Z,101748.00
2023-05-17T17:39:59.469Z,101753.00
2023-05-17T17:42:32.484Z,101752.00
2023-05-17T17:45:02.593Z,101751.00
2023-05-17T17:47:32.728Z,101756.00
2023-05-17T17:50:02.867Z,101756.00
2023-05-17T17:52:32.958Z,101762.00
2023-05-17T17:55:03.110Z,101772.00
2023-05-17T17:57:35.798Z,101774.00
2023-05-17T18:00:06.350Z,101770.00
2023-05-17T18:02:36.458Z,101776.00
2023-05-17T18:05:07.341Z,101771.00
2023-05-17T18:07:37.469Z,101778.00
2023-05-17T18:10:09.489Z,101780.00
2023-05-17T18:12:42.205Z,101777.00
2023-05-17T18:15:14.267Z,101784.00
2023-05-17T18:17:44.704Z,101781.00
2023-05-17T18:20:14.984Z,101791.00
2023-05-17T18:22:45.087Z,101794.00
2023-05-17T18:25:15.180Z,101789.00
2023-05-17T18:27:47.892Z,101803.00
2023-05-17T18:30:18.095Z,101810.00
2023-05-17T18:32:48.347Z,101800.00
2023-05-17T18:35:18.972Z,101803.00
2023-05-17T18:37:49.087Z,101812.00
2023-05-17T18:40:19.550Z,101816.00
2023-05-17T18:42:52.230Z,101822.00
2023-05-17T18:45:22.916Z,101823.00
2023-05-17T18:47:53.056Z,101830.00
2023-05-17T18:50:23.255Z,101818.00
2023-05-17T18:52:54.865Z,101825.00
2023-05-17T18:55:26.724Z,101826.00
2023-05-17T18:57:59.539Z,101838.00
2023-05-17T19:00:29.786Z,101836.00
2023-05-17T19:03:00.154Z,101839.00
2023-05-17T19:05:32.469Z,101843.00
2023-05-17T19:08:04.004Z,101853.00
2023-05-17T19:10:34.082Z,101864.00
2023-05-17T19:13:08.042Z,101865.00
2023-05-17T19:15:38.278Z,101874.00
2023-05-17T19:18:09.573Z,101871.00
2023-05-17T19:20:39.746Z,101884.00
2023-05-17T19:23:09.798Z,101873.00
2023-05-17T19:25:39.895Z,101885.00
2023-05-17T19:28:12.562Z,101895.00
2023-05-17T19:30:42.679Z,101891.00
2023-05-17T19:33:12.830Z,101900.00
2023-05-17T19:35:43.189Z,101906.00
2023-05-17T19:38:13.494Z,101905.00
2023-05-17T19:40:43.554Z,101915.00
2023-05-17T19:43:16.266Z,101908.00
2023-05-17T19:45:46.352Z,101915.00
2023-05-17T19:48:16.803Z,101929.00
2023-05-17T19:50:46.874Z,101923.00
2023-05-17T19:53:16.962Z,101925.00
2023-05-17T19:55:47.029Z,101921.00
2023-05-17T19:58:20.726Z,101930.00
2023-05-17T20:00:50.834Z,101933.00
2023-05-17T20:03:21.117Z,101935.00
2023-05-17T20:05:51.346Z,101933.00
2023-05-17T20:08:21.449Z,101939.00
2023-05-17T20:10:51.634Z,101945.00
2023-05-17T20:13:28.703Z,101945.00
2023-05-17T20:15:58.796Z,101950.00
2023-05-17T20:18:30.572Z,101951.00
2023-05-17T20:21:00.900Z,101961.00
2023-05-17T20:23:31.140Z,101958.00
2023-05-17T20:26:01.347Z,101960.00
2023-05-17T20:28:36.544Z,101968.00
2023-05-17T20:31:06.593Z,101959.00
2023-05-17T20:33:36.672Z,101961.00
2023-05-17T20:36:07.420Z,101960.00
2023-05-17T20:38:37.501Z,101968.00
2023-05-17T20:41:08.075Z,101978.00
2023-05-17T20:43:40.822Z,101962.00
2023-05-17T20:46:10.969Z,101972.00
2023-05-17T20:48:43.197Z,101970.00
2023-05-17T20:51:13.641Z,101972.00
2023-05-17T20:53:43.798Z,101972.00
2023-05-17T20:56:14.330Z,101978.00
2023-05-17T20:58:47.018Z,101965.00
2023-05-17T21:01:17.306Z,101968.00
2023-05-17T21:03:47.676Z,101970.00
2023-05-17T21:06:17.789Z,101977.00
2023-05-17T21:08:47.897Z,101975.00
2023-05-17T21:11:21.445Z,101974.00
2023-05-17T21:13:54.306Z,101977.00
2023-05-17T21:16:24.481Z,101974.00
2023-05-17T21:18:54.670Z,101981.00
2023-05-17T21:21:24.793Z,101977.00
2023-05-17T21:23:54.888Z,101978.00
2023-05-17T21:28:58.330Z,101982.00
2023-05-17T21:31:31.873Z,101979.00
2023-05-17T21:34:01.974Z,101978.00
2023-05-17T21:36:32.127Z,101976.00
2023-05-17T21:39:02.254Z,101971.00
2023-05-17T21:41:32.359Z,101977.00
2023-05-17T21:44:04.981Z,101984.00
2023-05-17T21:46:35.091Z,101978.00
2023-05-17T21:49:05.146Z,101981.00
2023-05-17T21:51:35.252Z,101983.00
2023-05-17T21:54:05.360Z,101980.00
2023-05-17T21:56:35.433Z,101980.00
2023-05-17T21:59:08.087Z,101984.00
2023-05-17T22:01:38.226Z,101984.00
2023-05-17T22:04:09.439Z,101984.00
2023-05-17T22:06:39.818Z,101982.00
2023-05-17T22:09:09.884Z,101977.00
2023-05-17T22:11:41.094Z,101978.00
2023-05-17T22:14:14.374Z,101980.00
2023-05-17T22:16:44.716Z,101992.00
2023-05-17T22:19:14.850Z,101979.00
2023-05-17T22:21:44.985Z,101983.00
2023-05-17T22:24:15.051Z,101984.00
2023-05-17T22:26:45.151Z,101982.00
2023-05-17T22:29:17.819Z,101989.00
2023-05-17T22:31:50.331Z,101992.00
2023-05-17T22:34:20.459Z,101993.00
2023-05-17T22:36:50.549Z,101993.00
2023-05-17T22:39:20.600Z,101988.00
2023-05-17T22:41:50.718Z,102002.00
2023-05-17T22:44:23.403Z,102007.00
2023-05-17T22:46:53.534Z,101999.00
2023-05-17T22:49:23.608Z,101997.00
2023-05-17T22:51:53.684Z,102008.00
2023-05-17T22:54:23.892Z,102007.00
2023-05-17T22:56:53.946Z,102010.00
2023-05-17T22:59:26.634Z,102009.00
2023-05-17T23:01:56.891Z,102007.00
2023-05-17T23:04:27.652Z,102007.00
2023-05-17T23:07:02.432Z,102014.00
2023-05-17T23:09:33.823Z,102003.00
2023-05-17T23:12:05.817Z,102016.00
2023-05-17T23:14:40.007Z,102010.00
2023-05-17T23:17:10.119Z,102006.00
2023-05-17T23:19:40.815Z,102006.00
2023-05-17T23:22:10.932Z,102011.00
2023-05-17T23:24:40.983Z,102014.00
2023-05-17T23:27:12.834Z,102010.00
2023-05-17T23:29:46.093Z,102011.00
2023-05-17T23:32:16.181Z,102014.00
2023-05-17T23:34:47.540Z,102020.00
2023-05-17T23:37:17.710Z,102017.00
2023-05-17T23:39:47.751Z,102021.00
2023-05-17T23:42:18.977Z,102011.00
2023-05-17T23:44:51.643Z,102026.00
2023-05-17T23:47:22.386Z,102018.00
2023-05-17T23:49:52.961Z,102029.00
2023-05-17T23:52:23.949Z,102024.00
2023-05-17T23:54:57.503Z,102021.00
2023-05-17T23:57:27.785Z,102024.00
